CAC6 weather

Calgary (Alberta Children's Hospital)
Calgary, Alberta, Canada

Public forecast

Using degrees Celsius for public forecast. Weather courtesy of forecast.io.

Closest aviation weather report (METAR) to Calgary (Alberta Children's Hospital)

Closest report is Calgary International Airport, 5.3 nm (9.9 km) ENE. Retrieved 2020/06/06 03:19 UTC (48 minutes ago):

CYYC 060319Z 27004KT 210V280 12SM SCT053 OVC070 12/08 A2979 RMK SC3AC5 SLP102 DENSITY ALT 4300FT

Closest aviation forecast (TAF) to Calgary (Alberta Children's Hospital)

Closest forecast is Calgary International Airport, 5.3 nm (9.9 km) ENE. Retrieved 2020-06-06 03:40 UTC (27 minutes ago):

TAF CYYC 060238Z 0603/0624 VRB03KT P6SM -SHRA BKN040 OVC070 TEMPO 0603/0608 5SM -SHRA BR BKN025 OVC050 FM060800 03006KT 6SM -RA BR SCT008 OVC015 TEMPO 0608/0613 21/2SM RA BR BKN006 OVC012 FM061300 26008KT P6SM -RA BKN008 OVC040 FM061500 20008KT P6SM BKN012 BKN040 FM061800 20008KT P6SM SCT040 BKN080 TEMPO 0618/0624 P6SM -SHRA BKN040 RMK NXT FCST BY 060600Z